Time;durP1;ratioP1;P1;durP2;ratioP2;P2;SDS_P1;SDS_P2;PMS_P1;PMS_P2;Temp;Humidity;BMP_temperature;BMP_pressure;BME280_temperature;BME280_humidity;BME280_pressure;Samples;Min_cycle;Max_cycle;Signal;HPM_P1;HPM_P2
2024/03/22 00:01:47;;;;;;;17.85;7.20;;;23.80;99.90;;;;;;5051778;28;20049;-48
2024/03/22 00:04:14;;;;;;;18.63;7.47;;;23.80;99.90;;;;;;5051664;28;20018;-48
2024/03/22 00:06:41;;;;;;;18.15;7.70;;;23.80;99.90;;;;;;5051275;28;20025;-49
2024/03/22 00:09:07;;;;;;;;;;;23.80;99.90;;;;;;5040676;28;20040;-48
2024/03/22 00:11:33;;;;;;;19.10;7.22;;;23.80;99.90;;;;;;5042018;28;20355;-49
2024/03/22 00:13:58;;;;;;;20.42;7.88;;;23.80;99.90;;;;;;5038941;28;20037;-48
2024/03/22 00:16:24;;;;;;;20.83;7.47;;;23.80;99.90;;;;;;5036375;28;20048;-48
2024/03/22 00:18:50;;;;;;;21.92;7.70;;;23.80;99.90;;;;;;5040527;28;20028;-48
2024/03/22 00:21:16;;;;;;;19.42;7.97;;;23.80;99.90;;;;;;5035806;28;20061;-48
2024/03/22 00:23:44;;;;;;;24.80;8.13;;;23.80;99.90;;;;;;5035034;28;20466;-48
2024/03/22 00:26:10;;;;;;;22.92;7.40;;;23.80;99.90;;;;;;5020478;28;20035;-47
2024/03/22 00:28:36;;;;;;;18.02;7.50;;;23.80;99.90;;;;;;5051715;28;20017;-47
2024/03/22 00:31:02;;;;;;;18.17;7.63;;;23.80;99.90;;;;;;5054909;28;20021;-47
2024/03/22 00:33:28;;;;;;;17.15;7.88;;;23.80;99.90;;;;;;5054989;28;20385;-47
2024/03/22 00:35:54;;;;;;;21.33;8.38;;;23.80;99.90;;;;;;5039050;28;20034;-47
2024/03/22 00:38:20;;;;;;;21.27;7.30;;;23.80;99.90;;;;;;5017452;28;20022;-47
2024/03/22 00:40:45;;;;;;;18.92;7.85;;;23.80;99.90;;;;;;5017096;28;20036;-47
2024/03/22 00:43:11;;;;;;;19.90;7.55;;;23.80;99.90;;;;;;5034831;28;20025;-47
2024/03/22 00:45:37;;;;;;;16.88;7.38;;;23.80;99.90;;;;;;5034462;28;20033;-48
2024/03/22 00:48:03;;;;;;;20.48;8.55;;;23.80;99.90;;;;;;5034719;28;20060;-48
2024/03/22 00:50:29;;;;;;;15.18;7.55;;;23.80;99.90;;;;;;5034726;28;20087;-48
2024/03/22 00:52:58;;;;;;;22.02;8.10;;;23.80;99.90;;;;;;5034730;28;20022;-47
2024/03/22 00:55:24;;;;;;;18.77;7.78;;;23.80;99.90;;;;;;5034617;28;20033;-48
2024/03/22 00:57:50;;;;;;;18.25;7.07;;;23.80;99.90;;;;;;5034662;28;20393;-48
2024/03/22 01:00:16;;;;;;;19.60;7.97;;;23.80;99.90;;;;;;5051547;23;20028;-51
2024/03/22 01:02:42;;;;;;;19.30;6.93;;;23.80;99.90;;;;;;5071968;28;20177;-52
2024/03/22 01:05:08;;;;;;;23.33;8.15;;;23.80;99.90;;;;;;5074443;28;20078;-52
2024/03/22 01:07:35;;;;;;;19.25;7.85;;;23.80;99.90;;;;;;5074512;28;20074;-52
2024/03/22 01:10:01;;;;;;;21.52;8.68;;;23.80;99.90;;;;;;5074168;28;20025;-52
2024/03/22 01:12:27;;;;;;;19.48;8.15;;;23.70;99.90;;;;;;5074117;28;20035;-52
2024/03/22 01:14:53;;;;;;;21.70;7.40;;;23.80;99.90;;;;;;5074414;28;20056;-52
2024/03/22 01:17:19;;;;;;;21.83;7.85;;;23.70;99.90;;;;;;5074306;28;20028;-53
2024/03/22 01:19:45;;;;;;;21.17;8.27;;;23.80;99.90;;;;;;5074130;28;20033;-52
2024/03/22 01:22:11;;;;;;;21.10;7.78;;;23.70;99.90;;;;;;5074179;28;20384;-52
2024/03/22 01:24:37;;;;;;;19.90;7.60;;;23.70;99.90;;;;;;5074613;28;20108;-53
2024/03/22 01:27:03;;;;;;;20.10;6.88;;;23.70;99.90;;;;;;5073913;28;20047;-53
2024/03/22 01:29:31;;;;;;;15.10;7.47;;;23.70;99.90;;;;;;5071860;28;20430;-52
2024/03/22 01:31:58;;;;;;;15.18;7.50;;;23.70;99.90;;;;;;5073406;28;20266;-52
2024/03/22 01:34:24;;;;;;;20.02;7.85;;;23.70;99.90;;;;;;5054812;28;20404;-52
2024/03/22 01:36:51;;;;;;;17.15;7.43;;;23.70;99.90;;;;;;5073885;28;20025;-53
2024/03/22 01:39:20;;;;;;;21.48;7.70;;;23.70;99.90;;;;;;5073891;28;20025;-52
2024/03/22 01:41:50;;;;;;;20.88;7.97;;;23.70;99.90;;;;;;5055808;28;20024;-53
2024/03/22 01:44:16;;;;;;;21.40;7.78;;;23.70;99.90;;;;;;5073706;28;20017;-53
2024/03/22 01:46:42;;;;;;;19.90;8.05;;;23.70;99.90;;;;;;5054917;28;20114;-52
2024/03/22 01:49:12;;;;;;;18.83;7.30;;;23.70;99.90;;;;;;5073825;28;20067;-53
2024/03/22 01:51:40;;;;;;;14.00;7.22;;;23.70;99.90;;;;;;5073032;28;20021;-53
2024/03/22 01:54:09;;;;;;;18.73;8.00;;;23.70;99.90;;;;;;5072555;28;20079;-53
2024/03/22 01:56:37;;;;;;;16.83;6.78;;;23.70;99.90;;;;;;5071323;28;20048;-52
2024/03/22 01:59:04;;;;;;;19.48;7.30;;;23.70;99.90;;;;;;5054558;28;20507;-52
2024/03/22 02:01:30;;;;;;;18.48;7.15;;;23.70;99.90;;;;;;5073113;28;20044;-52
2024/03/22 02:03:56;;;;;;;19.10;6.65;;;23.70;99.90;;;;;;5073207;28;20035;-52
2024/03/22 02:06:21;;;;;;;16.45;7.57;;;23.70;99.90;;;;;;5073145;28;20106;-52
2024/03/22 02:08:47;;;;;;;23.85;6.13;;;23.70;99.90;;;;;;5072603;28;20039;-52
2024/03/22 02:11:13;;;;;;;21.73;7.60;;;23.70;99.90;;;;;;5073154;28;20047;-52
2024/03/22 02:13:39;;;;;;;21.63;7.88;;;23.70;99.90;;;;;;5073285;28;20082;-52
2024/03/22 02:16:05;;;;;;;20.35;7.53;;;23.70;99.90;;;;;;5072861;28;20039;-52
2024/03/22 02:18:31;;;;;;;18.63;7.60;;;23.70;99.90;;;;;;5055026;28;20017;-53
2024/03/22 02:20:57;;;;;;;19.60;6.10;;;23.70;99.90;;;;;;5072885;28;20070;-51
2024/03/22 02:23:43;;;;;;;16.48;7.68;;;23.70;99.90;;;;;;5072915;28;20487;-52
2024/03/22 02:26:09;;;;;;;18.30;7.45;;;23.70;99.90;;;;;;5072514;28;20086;-53
2024/03/22 02:28:35;;;;;;;17.13;6.70;;;23.70;99.90;;;;;;5072731;28;20028;-53
2024/03/22 02:31:02;;;;;;;16.58;7.07;;;23.70;99.90;;;;;;5072763;28;20029;-53
2024/03/22 02:33:28;;;;;;;21.15;7.13;;;23.70;99.90;;;;;;5072712;28;20017;-52
2024/03/22 02:35:54;;;;;;;19.77;7.07;;;23.70;99.90;;;;;;5072684;28;20535;-52
2024/03/22 02:38:20;;;;;;;17.05;6.55;;;23.70;99.90;;;;;;5072674;28;20096;-52
2024/03/22 02:40:48;;;;;;;18.40;6.50;;;23.70;99.90;;;;;;5072770;28;20031;-53
2024/03/22 02:43:14;;;;;;;18.45;7.22;;;23.70;99.90;;;;;;5072730;28;20021;-52
2024/03/22 02:45:40;;;;;;;20.50;6.88;;;23.60;99.90;;;;;;5071968;28;20484;-52
2024/03/22 02:48:06;;;;;;;17.65;6.40;;;23.70;99.90;;;;;;5072392;28;20098;-52
2024/03/22 02:50:39;;;;;;;15.20;6.35;;;23.70;99.90;;;;;;5072677;28;20031;-52
2024/03/22 02:53:05;;;;;;;13.88;6.22;;;23.70;99.90;;;;;;5072529;28;20020;-53
2024/03/22 02:55:37;;;;;;;16.33;6.82;;;23.70;99.90;;;;;;5072488;28;20527;-53
2024/03/22 02:58:03;;;;;;;19.48;7.30;;;23.60;99.90;;;;;;5072510;28;20021;-52
2024/03/22 03:00:29;;;;;;;19.80;6.93;;;23.70;99.90;;;;;;5085004;23;20366;-42
2024/03/22 03:02:54;;;;;;;14.80;5.85;;;23.60;99.90;;;;;;5034931;28;20107;-41
2024/03/22 03:05:22;;;;;;;15.70;6.07;;;23.60;99.90;;;;;;5032589;28;20067;-42
2024/03/22 03:07:48;;;;;;;21.08;6.88;;;23.70;99.90;;;;;;5014206;28;20473;-43
2024/03/22 03:10:14;;;;;;;17.92;7.18;;;23.70;99.90;;;;;;5030771;28;20033;-43
2024/03/22 03:12:39;;;;;;;21.90;6.63;;;23.60;99.90;;;;;;5030439;28;20037;-43
2024/03/22 03:15:06;;;;;;;16.08;6.32;;;23.60;99.90;;;;;;5030945;28;20043;-42
2024/03/22 03:17:31;;;;;;;16.48;6.25;;;23.60;99.90;;;;;;5021435;28;20540;-46
2024/03/22 03:19:57;;;;;;;20.10;6.97;;;23.60;99.90;;;;;;5041437;28;20025;-42
2024/03/22 03:22:23;;;;;;;16.63;7.03;;;23.60;99.90;;;;;;5034322;28;20037;-41
2024/03/22 03:24:48;;;;;;;12.52;6.00;;;23.60;99.90;;;;;;5035073;28;20521;-42
2024/03/22 03:27:14;;;;;;;17.75;7.13;;;23.60;99.90;;;;;;5029760;28;20441;-43
2024/03/22 03:29:40;;;;;;;16.30;6.93;;;23.60;99.90;;;;;;5031697;28;20021;-48
2024/03/22 03:32:06;;;;;;;12.40;6.53;;;23.60;99.90;;;;;;5031785;28;20029;-43
2024/03/22 03:34:32;;;;;;;16.92;7.38;;;23.60;99.90;;;;;;5031994;28;20492;-42
2024/03/22 03:37:00;;;;;;;17.05;6.40;;;23.60;99.90;;;;;;5014383;28;20084;-42
2024/03/22 03:39:27;;;;;;;14.82;5.97;;;23.60;99.90;;;;;;5032071;28;20024;-42
2024/03/22 03:41:52;;;;;;;14.50;6.38;;;23.60;99.90;;;;;;5032053;28;20406;-42
2024/03/22 03:44:18;;;;;;;13.65;5.65;;;23.60;99.90;;;;;;5032056;28;20028;-42
2024/03/22 03:46:44;;;;;;;16.23;5.45;;;23.60;99.90;;;;;;5032173;28;20028;-42
2024/03/22 03:49:10;;;;;;;15.25;5.60;;;23.60;99.90;;;;;;5032089;28;20030;-42
2024/03/22 03:51:36;;;;;;;15.90;6.90;;;23.60;99.90;;;;;;5014300;28;20034;-42
2024/03/22 03:54:01;;;;;;;14.68;6.38;;;23.60;99.90;;;;;;5014085;28;20053;-43
2024/03/22 03:56:27;;;;;;;13.80;5.82;;;23.60;99.90;;;;;;5033527;28;20037;-43
2024/03/22 03:58:54;;;;;;;14.30;5.72;;;23.60;99.90;;;;;;5035800;28;20024;-43
2024/03/22 04:01:19;;;;;;;11.20;5.35;;;23.60;99.90;;;;;;5036287;28;20045;-41
2024/03/22 04:03:45;;;;;;;16.65;6.85;;;23.50;99.90;;;;;;5035994;28;20424;-42
2024/03/22 04:06:11;;;;;;;13.80;6.90;;;23.60;99.90;;;;;;5018248;28;20036;-42
2024/03/22 04:08:37;;;;;;;15.38;6.05;;;23.60;99.90;;;;;;5017854;28;20040;-43
2024/03/22 04:11:03;;;;;;;16.95;5.55;;;23.60;99.90;;;;;;5017768;28;20025;-42
2024/03/22 04:13:28;;;;;;;16.33;6.07;;;23.60;99.90;;;;;;5035734;28;20021;-42
2024/03/22 04:15:58;;;;;;;18.20;5.93;;;23.50;99.90;;;;;;5035557;28;20068;-42
2024/03/22 04:18:23;;;;;;;16.30;5.75;;;23.50;99.90;;;;;;5018533;28;20025;-42
2024/03/22 04:20:56;;;;;;;13.73;5.97;;;23.50;99.90;;;;;;5035471;28;20478;-42
2024/03/22 04:23:23;;;;;;;12.70;6.50;;;23.50;99.90;;;;;;5035320;28;20027;-42
2024/03/22 04:25:59;;;;;;;16.42;7.00;;;23.50;99.90;;;;;;5035564;28;20040;-43
2024/03/22 04:28:25;;;;;;;12.05;6.25;;;23.50;99.90;;;;;;5035454;28;20026;-42
2024/03/22 04:30:59;;;;;;;12.27;5.65;;;23.50;99.90;;;;;;5035272;28;20029;-43
2024/03/22 04:33:26;;;;;;;14.55;5.60;;;23.50;99.90;;;;;;5017466;28;20465;-43
2024/03/22 04:35:53;;;;;;;13.57;5.93;;;23.50;99.90;;;;;;5035092;28;20033;-42
2024/03/22 04:38:19;;;;;;;12.95;5.47;;;23.50;99.90;;;;;;5017493;28;20017;-43
2024/03/22 04:40:45;;;;;;;14.05;6.20;;;23.50;99.90;;;;;;5017522;28;20504;-43
2024/03/22 04:43:10;;;;;;;16.08;6.13;;;23.50;99.90;;;;;;5017384;28;20025;-43
2024/03/22 04:45:36;;;;;;;13.10;5.97;;;23.50;99.90;;;;;;5035011;28;20029;-43
2024/03/22 04:48:04;;;;;;;16.80;6.40;;;23.50;99.90;;;;;;5034991;28;20029;-42
2024/03/22 04:50:30;;;;;;;17.58;6.43;;;23.50;99.90;;;;;;5035033;28;20057;-42
2024/03/22 04:52:56;;;;;;;14.88;6.15;;;23.50;99.90;;;;;;5034911;28;20049;-42
2024/03/22 04:55:22;;;;;;;16.65;7.35;;;23.50;99.90;;;;;;5017018;28;20519;-42
2024/03/22 04:57:48;;;;;;;13.70;6.35;;;23.50;99.90;;;;;;5035028;28;20378;-42
2024/03/22 05:00:15;;;;;;;12.40;5.88;;;23.50;99.90;;;;;;5034957;28;20028;-42
2024/03/22 05:02:41;;;;;;;11.75;6.68;;;23.50;99.90;;;;;;5034379;28;20061;-43
2024/03/22 05:05:09;;;;;;;11.98;6.03;;;23.50;99.90;;;;;;5034528;28;20030;-42
2024/03/22 05:07:35;;;;;;;11.52;5.80;;;23.50;99.90;;;;;;5015800;28;20033;-42
2024/03/22 05:10:03;;;;;;;15.30;5.63;;;23.50;99.90;;;;;;5034594;28;20033;-42
2024/03/22 05:12:29;;;;;;;12.52;6.18;;;23.50;99.90;;;;;;5034399;28;20036;-43
2024/03/22 05:14:55;;;;;;;13.98;6.20;;;23.50;99.90;;;;;;5016722;28;20042;-42
2024/03/22 05:17:21;;;;;;;14.60;5.90;;;23.50;99.90;;;;;;5034519;28;20048;-42
2024/03/22 05:19:47;;;;;;;14.20;6.47;;;23.50;99.90;;;;;;5034673;28;20031;-42
2024/03/22 05:22:13;;;;;;;19.30;6.57;;;23.50;99.90;;;;;;5034346;28;20109;-42
2024/03/22 05:24:38;;;;;;;17.75;6.47;;;23.40;99.90;;;;;;5034215;28;20032;-42
2024/03/22 05:27:04;;;;;;;19.05;6.25;;;23.40;99.90;;;;;;5034399;28;20030;-42
2024/03/22 05:29:30;;;;;;;14.18;6.50;;;23.40;99.90;;;;;;5034332;28;20143;-42
2024/03/22 05:31:57;;;;;;;17.58;6.50;;;23.40;99.90;;;;;;5016657;28;20098;-42
2024/03/22 05:34:22;;;;;;;11.48;5.55;;;23.40;99.90;;;;;;5016321;28;20021;-41
2024/03/22 05:36:48;;;;;;;14.07;5.43;;;23.40;99.90;;;;;;5016271;28;20478;-42
2024/03/22 05:39:14;;;;;;;13.77;6.18;;;23.40;99.90;;;;;;5034116;28;20034;-42
2024/03/22 05:41:40;;;;;;;11.85;5.35;;;23.40;99.90;;;;;;5033980;28;20025;-40
2024/03/22 05:44:07;;;;;;;13.48;6.07;;;23.40;99.90;;;;;;5033926;28;20362;-42
2024/03/22 05:46:32;;;;;;;9.93;5.07;;;23.40;99.90;;;;;;5033923;28;20096;-42
2024/03/22 05:48:58;;;;;;;11.45;6.13;;;23.40;99.90;;;;;;5033721;28;20105;-43
2024/03/22 05:51:25;;;;;;;15.60;6.40;;;23.40;99.90;;;;;;5033834;28;20474;-42
2024/03/22 05:53:51;;;;;;;12.68;5.78;;;23.40;99.90;;;;;;5016558;28;20390;-42
2024/03/22 05:56:17;;;;;;;15.05;6.07;;;23.40;99.90;;;;;;5033757;28;20038;-41
2024/03/22 05:58:43;;;;;;;10.68;5.88;;;23.40;99.90;;;;;;5033704;28;20028;-42
2024/03/22 06:01:09;;;;;;;13.20;6.07;;;23.40;99.90;;;;;;5039032;28;20496;-42
2024/03/22 06:03:34;;;;;;;14.55;5.93;;;23.40;99.90;;;;;;5052698;28;20021;-42
2024/03/22 06:06:00;;;;;;;13.15;5.85;;;23.40;99.90;;;;;;5052600;28;20036;-42
2024/03/22 06:08:27;;;;;;;13.07;5.57;;;23.40;99.90;;;;;;5051234;28;20442;-43
2024/03/22 06:10:54;;;;;;;14.68;6.03;;;23.40;99.90;;;;;;5051514;28;20021;-42
2024/03/22 06:13:20;;;;;;;15.15;6.53;;;23.40;99.90;;;;;;5051731;28;20013;-42
2024/03/22 06:15:48;;;;;;;13.95;6.05;;;23.40;99.90;;;;;;5051431;28;20040;-42
2024/03/22 06:18:14;;;;;;;13.65;5.78;;;23.40;99.90;;;;;;5051405;28;20025;-42
2024/03/22 06:20:40;;;;;;;17.25;5.82;;;23.40;99.90;;;;;;5051170;28;20040;-42
2024/03/22 06:23:07;;;;;;;16.05;6.13;;;23.40;99.90;;;;;;5052902;28;20024;-42
2024/03/22 06:25:33;;;;;;;14.75;6.40;;;23.40;99.90;;;;;;5053140;28;20029;-42
2024/03/22 06:27:59;;;;;;;12.95;5.90;;;23.30;99.90;;;;;;5052969;28;20036;-43
2024/03/22 06:30:24;;;;;;;11.18;6.43;;;23.40;99.90;;;;;;5052991;28;20558;-43
2024/03/22 06:32:50;;;;;;;13.10;5.40;;;23.40;99.90;;;;;;5052983;28;20090;-43
2024/03/22 06:35:16;;;;;;;14.20;6.18;;;23.40;99.90;;;;;;5052832;28;20060;-44
2024/03/22 06:37:42;;;;;;;16.05;5.38;;;23.40;99.90;;;;;;5052856;28;20024;-43
2024/03/22 06:40:09;;;;;;;11.38;5.65;;;23.30;99.90;;;;;;5052721;28;20109;-42
2024/03/22 06:42:35;;;;;;;14.25;5.85;;;23.40;99.90;;;;;;5052738;28;20020;-42
2024/03/22 06:45:02;;;;;;;12.95;5.35;;;23.40;99.90;;;;;;5052642;28;20047;-42
2024/03/22 06:47:28;;;;;;;10.57;5.80;;;23.40;99.90;;;;;;5034825;28;20031;-42
2024/03/22 06:49:53;;;;;;;11.27;5.68;;;23.30;99.90;;;;;;5052701;28;20096;-43
2024/03/22 06:52:20;;;;;;;18.50;6.18;;;23.40;99.90;;;;;;5052723;28;20033;-43
2024/03/22 06:54:46;;;;;;;15.70;6.13;;;23.30;99.90;;;;;;5052569;28;20452;-42
2024/03/22 06:57:12;;;;;;;14.18;5.47;;;23.40;99.90;;;;;;5034791;28;20033;-42
2024/03/22 06:59:37;;;;;;;15.35;5.60;;;23.30;99.90;;;;;;5052505;28;20091;-42
2024/03/22 07:02:03;;;;;;;13.05;5.95;;;23.40;99.90;;;;;;5052325;28;20123;-42
2024/03/22 07:04:29;;;;;;;13.93;5.70;;;23.40;99.90;;;;;;5052213;28;20021;-42
2024/03/22 07:06:55;;;;;;;15.57;5.63;;;23.30;99.90;;;;;;5052436;28;20102;-42
2024/03/22 07:09:21;;;;;;;12.45;5.70;;;23.40;99.90;;;;;;5052484;28;20025;-42
2024/03/22 07:11:47;;;;;;;14.93;6.45;;;23.30;99.90;;;;;;5034292;28;20032;-43
2024/03/22 07:14:13;;;;;;;10.88;4.68;;;23.30;99.90;;;;;;5034219;28;20124;-42
2024/03/22 07:16:38;;;;;;;17.55;6.10;;;23.40;99.90;;;;;;5052115;28;20037;-43
2024/03/22 07:19:05;;;;;;;11.32;5.57;;;23.30;99.90;;;;;;5052033;28;20021;-42
2024/03/22 07:21:31;;;;;;;13.55;5.70;;;23.40;99.90;;;;;;5052172;28;20029;-42
2024/03/22 07:23:57;;;;;;;13.38;5.70;;;23.40;99.90;;;;;;5052185;28;20024;-43
2024/03/22 07:26:23;;;;;;;10.23;4.75;;;23.40;99.90;;;;;;5052170;28;20024;-43
2024/03/22 07:28:48;;;;;;;16.95;6.07;;;23.40;99.90;;;;;;5034218;28;20080;-43
2024/03/22 07:31:14;;;;;;;15.57;5.28;;;23.40;99.90;;;;;;5051393;28;20021;-43
2024/03/22 07:33:40;;;;;;;13.02;6.32;;;23.40;99.90;;;;;;5051945;28;20067;-44
2024/03/22 07:36:07;;;;;;;11.18;5.18;;;23.30;99.90;;;;;;5052004;28;20045;-42
2024/03/22 07:38:33;;;;;;;11.25;5.45;;;23.40;99.90;;;;;;5052009;28;20032;-42
2024/03/22 07:40:59;;;;;;;12.85;5.93;;;23.40;99.90;;;;;;5052028;28;20056;-42
2024/03/22 07:43:25;;;;;;;12.40;5.40;;;23.40;99.90;;;;;;5052070;28;20025;-43
2024/03/22 07:45:50;;;;;;;9.65;5.07;;;23.40;99.90;;;;;;5051847;28;20032;-42
2024/03/22 07:48:16;;;;;;;14.48;6.28;;;23.40;99.90;;;;;;5051735;28;20070;-42
2024/03/22 07:50:42;;;;;;;12.95;6.03;;;23.40;99.90;;;;;;5051937;28;20025;-43
2024/03/22 07:53:08;;;;;;;11.57;6.50;;;23.40;99.90;;;;;;5051814;28;20076;-43
2024/03/22 07:55:33;;;;;;;11.60;6.20;;;23.40;99.90;;;;;;5051723;28;20054;-43
2024/03/22 07:57:59;;;;;;;14.43;5.80;;;23.40;99.90;;;;;;5051904;28;20029;-42
2024/03/22 08:00:25;;;;;;;10.90;5.90;;;23.40;99.90;;;;;;5051996;28;20044;-42
2024/03/22 08:02:52;;;;;;;14.90;6.70;;;23.30;99.90;;;;;;5051379;28;20501;-42
2024/03/22 08:05:17;;;;;;;14.20;6.95;;;23.40;99.90;;;;;;5051785;28;20040;-42
2024/03/22 08:07:43;;;;;;;15.00;6.15;;;23.30;99.90;;;;;;5051640;28;20028;-42
2024/03/22 08:10:10;;;;;;;13.25;6.45;;;23.40;99.90;;;;;;5051705;28;20071;-42
2024/03/22 08:12:35;;;;;;;14.77;6.55;;;23.30;99.90;;;;;;5033987;28;20480;-42
2024/03/22 08:15:02;;;;;;;15.35;6.57;;;23.30;99.90;;;;;;5051520;28;20072;-43
2024/03/22 08:17:28;;;;;;;15.90;6.78;;;23.40;99.90;;;;;;5051862;28;20392;-42
2024/03/22 08:19:54;;;;;;;13.50;6.93;;;23.40;99.90;;;;;;5033838;28;20021;-43
2024/03/22 08:22:20;;;;;;;19.67;7.40;;;23.40;99.90;;;;;;5051544;28;20104;-42
2024/03/22 08:24:46;;;;;;;18.52;8.10;;;23.40;99.90;;;;;;5050257;28;20025;-44
2024/03/22 08:27:11;;;;;;;16.60;7.20;;;23.40;99.90;;;;;;5051605;28;20028;-43
2024/03/22 08:29:38;;;;;;;18.30;7.93;;;23.40;99.90;;;;;;5051487;28;20029;-42
2024/03/22 08:32:04;;;;;;;15.25;8.93;;;23.40;99.90;;;;;;5051411;28;20103;-43
2024/03/22 08:34:32;;;;;;;19.65;8.32;;;23.40;99.90;;;;;;5051577;28;20017;-42
2024/03/22 08:36:58;;;;;;;;;;;23.40;99.90;;;;;;5051890;28;20075;-43
2024/03/22 08:39:24;;;;;;;20.73;9.23;;;23.40;99.90;;;;;;5051367;28;20311;-42
2024/03/22 08:41:51;;;;;;;19.70;9.23;;;23.40;99.90;;;;;;5033623;28;20473;-42
2024/03/22 08:44:17;;;;;;;13.95;8.90;;;23.40;99.90;;;;;;5036228;28;20487;-42
2024/03/22 08:46:43;;;;;;;17.45;8.73;;;23.40;99.90;;;;;;5054895;28;20032;-42
2024/03/22 08:49:09;;;;;;;22.15;9.52;;;23.40;99.90;;;;;;5054787;28;20013;-43
2024/03/22 08:51:35;;;;;;;20.10;9.40;;;23.50;99.90;;;;;;5054711;28;20384;-43
2024/03/22 08:54:02;;;;;;;18.50;8.50;;;23.50;99.90;;;;;;5054789;28;20035;-43
2024/03/22 08:56:27;;;;;;;19.05;8.75;;;23.40;99.90;;;;;;5055003;28;20037;-43
2024/03/22 08:58:53;;;;;;;18.30;9.48;;;23.50;99.90;;;;;;5054627;28;20043;-43
2024/03/22 09:01:19;;;;;;;16.77;9.25;;;23.50;99.90;;;;;;5054434;28;20044;-42
2024/03/22 09:03:46;;;;;;;20.75;9.43;;;23.50;99.90;;;;;;5054580;28;20021;-43
2024/03/22 09:06:12;;;;;;;21.83;9.88;;;23.50;99.90;;;;;;5054590;28;20021;-43
2024/03/22 09:08:38;;;;;;;18.98;9.02;;;23.50;99.90;;;;;;5054546;28;20113;-43
2024/03/22 09:11:04;;;;;;;17.23;8.88;;;23.50;99.90;;;;;;5054404;28;20107;-42
2024/03/22 09:13:31;;;;;;;19.98;9.00;;;23.50;99.90;;;;;;5054574;28;20107;-43
2024/03/22 09:15:58;;;;;;;18.60;8.45;;;23.50;99.90;;;;;;5036346;28;20039;-42
2024/03/22 09:18:24;;;;;;;20.52;9.35;;;23.50;99.90;;;;;;5054236;28;20492;-42
2024/03/22 09:20:50;;;;;;;24.10;9.68;;;23.50;99.90;;;;;;5054290;28;20378;-42
2024/03/22 09:23:15;;;;;;;16.55;9.10;;;23.50;99.90;;;;;;5054210;28;20079;-42
2024/03/22 09:25:41;;;;;;;14.15;7.28;;;23.60;99.90;;;;;;5054111;28;20029;-41
2024/03/22 09:28:07;;;;;;;19.65;8.45;;;23.60;99.90;;;;;;5054074;28;20013;-42
2024/03/22 09:30:33;;;;;;;16.35;8.45;;;23.60;99.90;;;;;;5054382;28;20373;-42
2024/03/22 09:32:58;;;;;;;16.40;8.43;;;23.50;99.90;;;;;;5054382;28;20021;-42
2024/03/22 09:35:24;;;;;;;15.52;7.78;;;23.60;99.90;;;;;;5053888;28;20033;-43
2024/03/22 09:37:50;;;;;;;16.33;8.93;;;23.60;99.90;;;;;;5053845;28;20465;-42
2024/03/22 09:40:16;;;;;;;16.77;8.10;;;23.60;99.90;;;;;;5053804;28;20021;-42
2024/03/22 09:42:42;;;;;;;18.70;8.13;;;23.60;99.90;;;;;;5035762;28;20025;-42
2024/03/22 09:45:10;;;;;;;21.02;9.55;;;23.70;99.90;;;;;;5019362;28;20049;-42
2024/03/22 09:47:37;;;;;;;20.58;7.90;;;23.70;99.90;;;;;;5035821;28;20408;-42
2024/03/22 09:50:06;;;;;;;17.75;8.07;;;23.70;99.90;;;;;;5054073;28;20051;-43
2024/03/22 09:52:33;;;;;;;18.02;8.20;;;23.70;99.90;;;;;;5019896;28;20024;-42
2024/03/22 09:54:59;;;;;;;16.77;7.88;;;23.70;99.90;;;;;;5053004;28;20025;-43
2024/03/22 09:57:26;;;;;;;15.88;8.18;;;23.70;99.90;;;;;;5053398;28;20040;-42
2024/03/22 09:59:52;;;;;;;11.30;6.95;;;23.70;99.90;;;;;;5035571;28;20024;-46
2024/03/22 10:02:20;;;;;;;17.55;8.65;;;23.80;99.90;;;;;;5035262;28;20176;-42
2024/03/22 10:04:45;;;;;;;14.02;7.85;;;23.80;99.90;;;;;;5053421;28;20135;-44
2024/03/22 10:07:13;;;;;;;20.58;8.55;;;23.80;99.90;;;;;;5053333;28;20108;-43
2024/03/22 10:09:39;;;;;;;;;;;23.80;99.90;;;;;;5053771;28;20021;-42
2024/03/22 10:12:05;;;;;;;17.67;8.20;;;23.80;99.90;;;;;;5035561;28;20423;-43
2024/03/22 10:14:33;;;;;;;16.98;8.20;;;23.90;99.90;;;;;;5053458;28;20021;-44
2024/03/22 10:16:59;;;;;;;18.05;7.47;;;23.90;99.90;;;;;;5045921;28;20026;-44
2024/03/22 10:19:25;;;;;;;19.73;8.25;;;23.90;99.90;;;;;;5040271;28;20040;-43
2024/03/22 10:22:03;;;;;;;17.98;7.90;;;23.90;99.90;;;;;;5038418;28;20100;-42
2024/03/22 10:24:30;;;;;;;13.60;7.35;;;23.90;99.90;;;;;;5033047;28;20032;-42
2024/03/22 10:26:56;;;;;;;19.42;7.60;;;23.90;99.90;;;;;;5033001;28;20104;-42
2024/03/22 10:29:22;;;;;;;15.63;7.75;;;24.00;99.90;;;;;;5033229;28;20056;-42
2024/03/22 10:31:50;;;;;;;15.82;7.75;;;24.00;99.90;;;;;;5015247;28;20057;-43
2024/03/22 10:34:16;;;;;;;;;;;24.00;99.90;;;;;;5038802;28;20084;-43
2024/03/22 10:36:43;;;;;;;21.80;7.75;;;24.00;99.90;;;;;;5041832;28;20261;-43
2024/03/22 10:39:12;;;;;;;15.30;7.30;;;24.00;99.90;;;;;;5043337;28;20469;-42
2024/03/22 10:41:38;;;;;;;13.70;7.18;;;24.00;99.90;;;;;;5042547;28;20112;-43
2024/03/22 10:44:04;;;;;;;16.20;6.93;;;24.10;99.90;;;;;;5007396;28;20474;-42
2024/03/22 10:46:31;;;;;;;18.15;7.38;;;24.00;99.90;;;;;;5040325;28;20028;-42
2024/03/22 10:49:04;;;;;;;18.33;7.82;;;24.10;99.90;;;;;;5049900;28;20115;-42
2024/03/22 10:51:31;;;;;;;15.82;7.38;;;24.00;99.90;;;;;;5024114;28;20026;-42
2024/03/22 10:53:59;;;;;;;15.30;6.75;;;24.10;99.90;;;;;;5040952;28;20033;-42
2024/03/22 10:56:25;;;;;;;14.70;7.60;;;24.10;99.90;;;;;;5042134;28;20489;-42
2024/03/22 10:58:52;;;;;;;16.13;7.13;;;24.10;99.90;;;;;;5051838;28;20492;-43
2024/03/22 11:01:26;;;;;;;20.35;8.35;;;24.10;99.90;;;;;;5050539;28;20076;-42
2024/03/22 11:04:12;;;;;;;17.40;7.25;;;24.20;99.90;;;;;;5040319;28;20500;-42
2024/03/22 11:06:38;;;;;;;15.90;7.35;;;24.20;99.90;;;;;;5039381;28;20389;-42
2024/03/22 11:09:05;;;;;;;14.88;5.93;;;24.20;99.90;;;;;;5024890;28;20034;-42
2024/03/22 11:11:37;;;;;;;17.55;7.18;;;24.20;99.90;;;;;;5041195;28;20025;-43
2024/03/22 11:14:03;;;;;;;16.58;6.97;;;24.20;99.90;;;;;;5041387;28;20029;-42
2024/03/22 11:16:30;;;;;;;20.35;7.50;;;24.20;99.90;;;;;;5027116;28;20592;-42
2024/03/22 11:18:56;;;;;;;17.75;5.95;;;24.30;99.90;;;;;;5051593;28;20164;-41
2024/03/22 11:21:21;;;;;;;359.80;33.00;;;24.30;99.90;;;;;;5052083;28;20046;-42
2024/03/22 11:23:47;;;;;;;372.75;34.17;;;24.30;99.90;;;;;;5051809;28;20021;-42
2024/03/22 11:26:13;;;;;;;109.47;12.65;;;24.30;99.90;;;;;;5051938;28;20119;-42
2024/03/22 11:28:40;;;;;;;121.80;14.55;;;24.30;99.90;;;;;;5052272;28;20029;-41
2024/03/22 11:31:06;;;;;;;69.15;9.65;;;24.30;99.90;;;;;;5052057;28;20056;-41
2024/03/22 11:33:32;;;;;;;76.32;9.63;;;24.30;99.90;;;;;;5052055;28;20539;-41
2024/03/22 11:36:02;;;;;;;63.38;10.90;;;24.30;99.90;;;;;;5051806;28;20099;-42
2024/03/22 11:38:30;;;;;;;60.10;8.88;;;24.30;99.90;;;;;;5051903;28;20047;-43
2024/03/22 11:40:59;;;;;;;49.72;7.70;;;24.30;99.90;;;;;;5051827;28;20069;-41
2024/03/22 11:43:27;;;;;;;50.03;9.02;;;24.30;99.90;;;;;;5034138;28;20017;-43
2024/03/22 11:45:54;;;;;;;40.50;7.60;;;24.40;99.90;;;;;;5051837;28;20095;-43
2024/03/22 11:48:20;;;;;;;47.92;7.70;;;24.40;99.90;;;;;;5051762;28;20040;-42
2024/03/22 11:50:47;;;;;;;41.60;7.25;;;24.40;99.90;;;;;;5051885;28;20404;-47
2024/03/22 11:53:12;;;;;;;23.73;5.20;;;24.50;99.90;;;;;;5051821;28;20035;-42
2024/03/22 11:55:38;;;;;;;29.48;6.63;;;24.50;99.90;;;;;;5051821;28;20416;-41
2024/03/22 11:58:04;;;;;;;33.97;6.60;;;24.50;99.90;;;;;;5033962;28;20067;-42
2024/03/22 12:00:30;;;;;;;37.85;7.75;;;24.50;99.90;;;;;;5051636;28;20067;-43
2024/03/22 12:02:56;;;;;;;29.30;6.97;;;24.60;99.90;;;;;;5051439;28;20048;-43
2024/03/22 12:05:21;;;;;;;29.80;6.43;;;24.60;99.90;;;;;;5047467;28;20477;-42
2024/03/22 12:07:47;;;;;;;29.38;6.90;;;24.60;99.90;;;;;;5047267;28;20115;-42
2024/03/22 12:10:13;;;;;;;26.33;6.32;;;24.70;99.90;;;;;;5051599;28;20350;-44
2024/03/22 12:12:39;;;;;;;24.38;6.63;;;24.70;99.90;;;;;;5045610;28;20083;-41
2024/03/22 12:15:05;;;;;;;21.95;5.68;;;24.70;99.90;;;;;;5041066;28;20446;-42
2024/03/22 12:17:31;;;;;;;31.45;6.03;;;24.70;99.90;;;;;;5041275;28;20025;-43
2024/03/22 12:19:57;;;;;;;19.90;4.63;;;24.80;99.90;;;;;;5035473;28;20018;-44
2024/03/22 12:22:25;;;;;;;21.75;5.20;;;24.70;99.90;;;;;;5035346;28;20037;-43
2024/03/22 12:24:51;;;;;;;22.77;5.15;;;24.80;99.90;;;;;;5035303;28;20053;-44
2024/03/22 12:27:17;;;;;;;32.22;5.10;;;24.80;99.90;;;;;;5043056;28;20031;-44
2024/03/22 12:29:43;;;;;;;24.50;5.10;;;24.90;99.90;;;;;;5048054;28;20477;-43
2024/03/22 12:32:10;;;;;;;22.95;4.70;;;24.90;99.90;;;;;;5046304;28;20044;-43
2024/03/22 12:34:35;;;;;;;23.33;4.75;;;24.90;99.90;;;;;;5036849;28;20481;-43